createdAt,value
2022-08-05T03:45:22.010Z,99.90
2022-08-05T03:47:50.164Z,99.90
2022-08-05T03:50:17.301Z,99.90
2022-08-05T03:55:50.219Z,99.90
2022-08-05T03:56:10.575Z,99.90
2022-08-05T03:58:38.270Z,99.90
2022-08-05T04:01:11.101Z,99.90
2022-08-05T04:03:39.516Z,99.90
2022-08-05T04:06:06.761Z,99.90
2022-08-05T04:08:36.712Z,99.90
2022-08-05T04:11:04.756Z,99.90
2022-08-05T04:13:50.370Z,99.90
2022-08-05T04:16:24.903Z,99.90
2022-08-05T04:18:58.929Z,99.90
2022-08-05T04:22:10.163Z,99.90
2022-08-05T04:24:14.256Z,99.90
2022-08-05T04:26:46.628Z,99.90
2022-08-05T04:29:13.335Z,99.90
2022-08-05T04:31:41.052Z,99.90
2022-08-05T04:34:19.047Z,99.90
2022-08-05T04:36:56.407Z,99.90
2022-08-05T04:39:23.334Z,99.90
2022-08-05T04:41:51.253Z,99.90
2022-08-05T04:44:21.445Z,99.90
2022-08-05T04:46:56.875Z,99.90
2022-08-05T04:49:39.042Z,99.90
2022-08-05T04:52:12.296Z,99.90
2022-08-05T04:54:38.961Z,99.90
2022-08-05T04:57:05.647Z,99.90
2022-08-05T05:07:23.965Z,99.90
2022-08-05T05:09:56.603Z,99.90
2022-08-05T05:12:24.349Z,99.90
2022-08-05T05:14:54.273Z,99.90
2022-08-05T05:17:24.291Z,99.90
2022-08-05T05:19:55.234Z,99.90
2022-08-05T05:22:26.087Z,99.90
2022-08-05T05:25:00.303Z,99.90
2022-08-05T05:27:41.616Z,99.90
2022-08-05T05:30:15.626Z,99.90
2022-08-05T05:38:00.021Z,99.90
2022-08-05T05:42:55.580Z,99.90
2022-08-05T05:45:23.039Z,99.90
2022-08-05T05:50:43.934Z,99.90
2022-08-05T05:55:52.450Z,99.90
2022-08-05T05:58:31.588Z,99.90
2022-08-05T06:01:12.956Z,99.90
2022-08-05T06:04:01.100Z,99.90
2022-08-05T06:06:31.108Z,99.90
2022-08-05T06:09:00.146Z,99.90
2022-08-05T06:11:29.028Z,99.90
2022-08-05T06:13:56.448Z,99.90
2022-08-05T06:16:28.554Z,99.90
2022-08-05T06:18:59.909Z,99.90
2022-08-05T06:21:36.085Z,99.90
2022-08-05T06:29:03.436Z,99.90
2022-08-05T06:31:33.750Z,99.90
2022-08-05T06:36:37.487Z,99.90
2022-08-05T06:39:21.872Z,99.90
2022-08-05T06:41:51.203Z,99.90
2022-08-05T06:44:18.880Z,99.90
2022-08-05T06:49:17.775Z,99.90
2022-08-05T07:06:46.884Z,99.90
2022-08-05T07:09:17.201Z,99.90
2022-08-05T07:11:49.577Z,99.90
2022-08-05T07:14:37.168Z,99.90
2022-08-05T07:22:42.004Z,99.90
2022-08-05T07:25:21.935Z,99.90
2022-08-05T07:27:57.304Z,99.90
2022-08-05T07:30:31.701Z,99.90
2022-08-05T07:33:00.193Z,99.90
2022-08-05T07:36:04.909Z,99.90
2022-08-05T07:38:32.896Z,99.90
2022-08-05T07:41:16.849Z,99.90
2022-08-05T07:43:47.686Z,99.90
2022-08-05T07:46:24.620Z,99.90
2022-08-05T07:49:02.005Z,99.90
2022-08-05T07:51:36.171Z,99.90
2022-08-05T07:54:05.256Z,99.90
2022-08-05T07:57:02.527Z,99.90
2022-08-05T07:59:21.938Z,99.90
2022-08-05T08:01:58.021Z,99.90
2022-08-05T08:04:38.137Z,99.90
2022-08-05T08:07:07.345Z,99.90
2022-08-05T08:14:38.053Z,99.90
2022-08-05T08:17:15.762Z,99.90
2022-08-05T08:20:23.058Z,99.90
2022-08-05T08:22:30.511Z,99.90
2022-08-05T08:25:03.246Z,99.90
2022-08-05T08:30:29.580Z,99.90
2022-08-05T08:32:53.892Z,99.90
2022-08-05T08:35:21.083Z,99.90
2022-08-05T08:37:54.410Z,99.90
2022-08-05T08:40:23.773Z,99.90
2022-08-05T08:42:52.565Z,99.90
2022-08-05T08:45:27.169Z,99.90
2022-08-05T08:51:03.584Z,99.90
2022-08-05T08:53:26.876Z,99.90
2022-08-05T08:56:04.083Z,99.90
2022-08-05T08:58:43.174Z,99.90
2022-08-05T09:01:15.997Z,99.90
2022-08-05T09:06:15.784Z,99.90
2022-08-05T09:08:46.836Z,99.90
2022-08-05T09:11:15.002Z,99.90
2022-08-05T09:14:00.917Z,99.90
2022-08-05T09:16:28.559Z,99.90
2022-08-05T09:18:56.099Z,99.90
2022-08-05T09:22:22.998Z,99.20
2022-08-05T09:24:15.446Z,99.50
2022-08-05T09:26:46.344Z,98.50
2022-08-05T09:29:17.563Z,97.70
2022-08-05T09:32:51.177Z,98.30
2022-08-05T09:34:55.192Z,96.60
2022-08-05T09:38:12.672Z,97.70
2022-08-05T09:40:29.485Z,98.60
2022-08-05T09:42:56.263Z,99.90
2022-08-05T09:46:07.669Z,99.90
2022-08-05T09:48:28.431Z,99.90
2022-08-05T09:51:15.320Z,99.90
2022-08-05T09:53:53.947Z,99.90
2022-08-05T09:56:26.549Z,96.10
2022-08-05T09:58:59.360Z,99.90
2022-08-05T10:04:10.680Z,98.20
2022-08-05T10:06:40.457Z,98.50
2022-08-05T10:11:35.203Z,99.70
2022-08-05T10:14:20.621Z,99.20
2022-08-05T10:16:53.123Z,99.80
2022-08-05T10:19:23.553Z,99.90
2022-08-05T10:21:59.076Z,98.10
2022-08-05T10:24:27.193Z,99.30
2022-08-05T10:26:56.312Z,98.20
2022-08-05T10:30:41.597Z,99.90
2022-08-05T10:32:59.435Z,98.10
2022-08-05T10:35:03.269Z,97.00
2022-08-05T10:37:40.424Z,95.70
2022-08-05T10:40:18.857Z,96.90
2022-08-05T10:42:47.449Z,95.90
2022-08-05T10:45:23.355Z,95.50
2022-08-05T10:48:29.660Z,95.70
2022-08-05T10:51:03.374Z,99.90
2022-08-05T10:53:38.195Z,99.90
2022-08-05T10:56:21.373Z,93.90
2022-08-05T10:58:55.667Z,98.50
2022-08-05T11:01:55.602Z,97.50
2022-08-05T11:04:23.196Z,98.90
2022-08-05T11:07:04.798Z,97.20
2022-08-05T11:09:46.583Z,94.10
2022-08-05T11:12:32.565Z,96.20
2022-08-05T11:15:19.734Z,97.40
2022-08-05T11:17:57.863Z,95.60
2022-08-05T11:20:47.513Z,95.30
2022-08-05T11:24:02.955Z,92.60
2022-08-05T11:26:28.731Z,91.60
2022-08-05T11:29:12.170Z,91.20
2022-08-05T11:31:58.744Z,91.80
2022-08-05T11:34:51.765Z,91.20
2022-08-05T11:38:30.913Z,92.10
2022-08-05T11:40:43.360Z,90.70
2022-08-05T11:46:27.514Z,89.40
2022-08-05T11:51:04.070Z,88.00
2022-08-05T11:53:40.760Z,88.70
2022-08-05T11:58:36.092Z,82.10
2022-08-05T12:01:10.560Z,85.60
2022-08-05T12:03:55.750Z,84.20
2022-08-05T12:06:23.967Z,85.80
2022-08-05T12:08:52.046Z,92.40
2022-08-05T12:13:55.050Z,84.30
2022-08-05T12:16:27.127Z,82.70
2022-08-05T12:18:55.941Z,81.60
2022-08-05T12:21:39.274Z,84.60
2022-08-05T12:24:07.854Z,82.30
2022-08-05T12:26:35.621Z,83.10
2022-08-05T12:29:04.314Z,84.20
2022-08-05T12:31:45.988Z,83.50
2022-08-05T12:34:21.361Z,83.40
2022-08-05T12:36:52.239Z,82.60
2022-08-05T12:39:19.242Z,81.70
2022-08-05T12:41:46.203Z,81.70
2022-08-05T12:44:28.432Z,81.00
2022-08-05T12:47:00.483Z,83.00
2022-08-05T12:50:03.725Z,85.00
2022-08-05T12:52:32.437Z,83.50
2022-08-05T12:55:22.333Z,79.40
2022-08-05T13:02:02.520Z,78.30
2022-08-05T13:03:27.795Z,78.40
2022-08-05T13:05:59.741Z,85.50
2022-08-05T13:14:05.399Z,74.10
2022-08-05T13:16:12.173Z,73.40
2022-08-05T13:18:50.685Z,74.00
2022-08-05T13:21:17.330Z,70.70
2022-08-05T13:23:50.801Z,91.40
2022-08-05T13:26:20.902Z,91.50
2022-08-05T13:34:22.503Z,76.70
2022-08-05T13:42:06.371Z,92.90
2022-08-05T13:44:34.826Z,95.80
2022-08-05T13:47:08.497Z,95.20
2022-08-05T13:52:09.787Z,66.50
2022-08-05T13:54:36.411Z,68.70
2022-08-05T13:57:03.898Z,66.90
2022-08-05T13:59:33.277Z,67.40
2022-08-05T14:02:02.966Z,66.10
2022-08-05T14:04:51.103Z,64.10
2022-08-05T14:07:59.681Z,65.10
2022-08-05T14:10:31.005Z,61.10
2022-08-05T14:12:58.313Z,62.40
2022-08-05T14:16:08.566Z,62.30
2022-08-05T14:18:14.842Z,60.70
2022-08-05T14:20:47.329Z,61.40
2022-08-05T14:25:53.881Z,61.40
2022-08-05T14:28:26.154Z,60.40
2022-08-05T14:30:54.234Z,62.80
2022-08-05T14:33:23.101Z,64.00
2022-08-05T14:35:50.900Z,63.70
2022-08-05T14:38:32.625Z,64.20
2022-08-05T14:41:07.448Z,64.90
2022-08-05T14:44:02.134Z,64.90
2022-08-05T14:46:22.562Z,71.20
2022-08-05T14:48:55.329Z,63.50
2022-08-05T14:51:22.255Z,73.50
2022-08-05T14:54:27.045Z,63.90
2022-08-05T14:56:44.058Z,63.00
2022-08-05T15:01:48.143Z,67.20
2022-08-05T15:04:17.114Z,85.90
2022-08-05T15:06:49.219Z,65.40
2022-08-05T15:09:16.967Z,66.10
2022-08-05T15:12:04.111Z,67.60
2022-08-05T15:17:03.918Z,64.50
2022-08-05T15:19:31.298Z,66.80
2022-08-05T15:22:00.127Z,66.70
2022-08-05T15:24:27.801Z,66.90
2022-08-05T15:26:56.034Z,66.30
2022-08-05T15:29:23.797Z,63.40
2022-08-05T15:34:32.973Z,65.10
2022-08-05T15:37:06.414Z,67.00
2022-08-05T15:41:03.739Z,64.00
2022-08-05T15:42:53.591Z,66.20
2022-08-05T15:45:14.943Z,71.50
2022-08-05T15:47:42.485Z,69.10
2022-08-05T15:50:09.785Z,68.00
2022-08-05T15:52:53.911Z,68.20
2022-08-05T15:55:24.716Z,71.40
2022-08-05T15:58:09.121Z,70.70
2022-08-05T16:00:57.109Z,71.50
2022-08-05T16:03:29.922Z,73.30
2022-08-05T16:05:59.318Z,72.40
2022-08-05T16:08:30.763Z,72.10
2022-08-05T16:10:57.984Z,75.00
2022-08-05T16:13:34.082Z,74.30
2022-08-05T16:16:01.233Z,74.90
2022-08-05T16:18:30.570Z,77.30
2022-08-05T16:20:57.523Z,76.90
2022-08-05T16:23:24.262Z,77.20
2022-08-05T16:25:55.913Z,76.90
2022-08-05T16:28:24.249Z,76.50
2022-08-05T16:30:52.135Z,75.70
2022-08-05T16:33:19.594Z,75.50
2022-08-05T16:35:52.449Z,78.20
2022-08-05T16:38:25.649Z,79.80
